Time;durP1;ratioP1;P1;durP2;ratioP2;P2;SDS_P1;SDS_P2;PMS_P1;PMS_P2;Temp;Humidity;BMP_temperature;BMP_pressure;BME280_temperature;BME280_humidity;BME280_pressure;Samples;Min_cycle;Max_cycle;Signal;HPM_P1;HPM_P2
2022/12/21 00:01:41;;;;;;;19.95;17.88;;;;;;;;;;5281659;28;20100;-68
2022/12/21 00:04:12;;;;;;;20.50;18.45;;;;;;;;;;5281187;28;20031;-68
2022/12/21 00:06:43;;;;;;;22.05;19.85;;;;;;;;;;5280583;28;20472;-68
2022/12/21 00:09:15;;;;;;;22.30;19.92;;;;;;;;;;5281808;28;20020;-68
2022/12/21 00:11:46;;;;;;;21.98;19.65;;;;;;;;;;5281214;28;20059;-68
2022/12/21 00:14:17;;;;;;;22.30;19.25;;;;;;;;;;5282036;28;20484;-68
2022/12/21 00:16:48;;;;;;;19.85;17.85;;;;;;;;;;5280502;28;20063;-68
2022/12/21 00:19:19;;;;;;;20.95;18.75;;;;;;;;;;5281861;28;20021;-68
2022/12/21 00:21:50;;;;;;;21.80;19.58;;;;;;;;;;5281222;28;20306;-68
2022/12/21 00:24:22;;;;;;;22.75;20.50;;;;;;;;;;5280837;28;20020;-68
2022/12/21 00:26:53;;;;;;;22.20;19.88;;;;;;;;;;5281691;28;20472;-68
2022/12/21 00:29:24;;;;;;;21.90;19.60;;;;;;;;;;5281592;28;20104;-68
2022/12/21 00:31:55;;;;;;;22.42;19.90;;;;;;;;;;5280675;28;20016;-68
2022/12/21 00:34:26;;;;;;;22.42;20.15;;;;;;;;;;5281368;28;20025;-68
2022/12/21 00:36:58;;;;;;;21.65;19.52;;;;;;;;;;5281631;28;20476;-68
2022/12/21 00:39:29;;;;;;;22.35;19.67;;;;;;;;;;5280801;28;20013;-68
2022/12/21 00:42:02;;;;;;;24.60;19.70;;;;;;;;;;5281244;28;20032;-68
2022/12/21 00:44:33;;;;;;;23.25;20.40;;;;;;;;;;5280316;28;20045;-68
2022/12/21 00:47:04;;;;;;;25.23;20.45;;;;;;;;;;5281481;28;20392;-68
2022/12/21 00:49:36;;;;;;;23.42;21.00;;;;;;;;;;5281361;28;20027;-68
2022/12/21 00:52:07;;;;;;;25.20;22.70;;;;;;;;;;5280496;28;20108;-68
2022/12/21 00:54:39;;;;;;;26.35;22.65;;;;;;;;;;5280903;28;20027;-67
2022/12/21 00:57:10;;;;;;;26.23;21.92;;;;;;;;;;5281417;28;20459;-67
2022/12/21 00:59:41;;;;;;;25.08;21.58;;;;;;;;;;5280229;28;20024;-67
2022/12/21 01:02:12;;;;;;;26.76;23.82;;;;;;;;;;5281538;28;20021;-67
2022/12/21 01:04:43;;;;;;;28.15;23.92;;;;;;;;;;5280895;28;20044;-68
2022/12/21 01:07:15;;;;;;;26.88;23.73;;;;;;;;;;5280657;28;20086;-68
2022/12/21 01:09:46;;;;;;;24.90;22.27;;;;;;;;;;5280826;28;20049;-68
2022/12/21 01:12:17;;;;;;;23.23;20.77;;;;;;;;;;5281513;28;20056;-68
2022/12/21 01:14:49;;;;;;;23.23;20.52;;;;;;;;;;5279950;28;20024;-68
2022/12/21 01:17:20;;;;;;;23.45;20.90;;;;;;;;;;5281188;28;20036;-68
2022/12/21 01:19:51;;;;;;;27.45;23.65;;;;;;;;;;5284186;28;20144;-68
2022/12/21 01:22:22;;;;;;;27.36;24.16;;;;;;;;;;5285014;28;20100;-68
2022/12/21 01:24:53;;;;;;;27.55;23.10;;;;;;;;;;5284945;28;20028;-68
2022/12/21 01:27:24;;;;;;;25.88;23.00;;;;;;;;;;5283996;28;20044;-68
2022/12/21 01:29:56;;;;;;;29.15;25.23;;;;;;;;;;5284636;28;20020;-68
2022/12/21 01:32:27;;;;;;;28.25;23.13;;;;;;;;;;5284480;28;20071;-68
2022/12/21 01:34:58;;;;;;;27.73;23.98;;;;;;;;;;5283775;28;20024;-68
2022/12/21 01:37:30;;;;;;;25.75;22.85;;;;;;;;;;5284586;28;20468;-68
2022/12/21 01:40:01;;;;;;;27.65;24.35;;;;;;;;;;5284574;28;20013;-68
2022/12/21 01:42:32;;;;;;;28.02;24.08;;;;;;;;;;5283627;28;20020;-68
2022/12/21 01:45:05;;;;;;;26.10;23.00;;;;;;;;;;5284141;28;20048;-68
2022/12/21 01:47:42;;;;;;;25.85;23.05;;;;;;;;;;5284469;28;20028;-68
2022/12/21 01:50:36;;;;;;;27.73;23.20;;;;;;;;;;5284432;28;20016;-68
2022/12/21 01:53:10;;;;;;;26.55;22.55;;;;;;;;;;5278373;28;20438;-68
2022/12/21 01:55:44;;;;;;;24.33;21.73;;;;;;;;;;5283030;28;20071;-68
2022/12/21 01:58:16;;;;;;;28.25;23.42;;;;;;;;;;5284564;28;20025;-68
2022/12/21 02:00:48;;;;;;;28.30;24.65;;;;;;;;;;5283784;28;20064;-68
2022/12/21 02:03:21;;;;;;;25.65;22.65;;;;;;;;;;5283568;28;20040;-68
2022/12/21 02:06:09;;;;;;;25.90;23.10;;;;;;;;;;5284042;28;20520;-68
2022/12/21 02:08:40;;;;;;;29.70;24.05;;;;;;;;;;5283606;28;20027;-68
2022/12/21 02:11:11;;;;;;;27.65;24.70;;;;;;;;;;5283555;28;20452;-68
2022/12/21 02:13:42;;;;;;;29.00;24.30;;;;;;;;;;5283551;28;20023;-67
2022/12/21 02:16:24;;;;;;;24.67;21.08;;;;;;;;;;5283108;28;20016;-67
2022/12/21 02:19:10;;;;;;;25.98;21.67;;;;;;;;;;5283877;28;20020;-67
2022/12/21 02:21:50;;;;;;;27.33;24.02;;;;;;;;;;5283348;28;20391;-67
2022/12/21 02:24:33;;;;;;;30.25;23.90;;;;;;;;;;5282765;28;20024;-67
2022/12/21 02:27:11;;;;;;;25.17;22.42;;;;;;;;;;5283704;28;20024;-67
2022/12/21 02:29:48;;;;;;;25.65;22.88;;;;;;;;;;5282298;28;20063;-68
2022/12/21 02:32:19;;;;;;;27.70;23.67;;;;;;;;;;5282999;28;20021;-68
2022/12/21 02:35:10;;;;;;;29.30;24.95;;;;;;;;;;5282980;28;20031;-68
2022/12/21 02:37:46;;;;;;;30.13;25.80;;;;;;;;;;5281985;28;20031;-67
2022/12/21 02:40:33;;;;;;;30.52;27.17;;;;;;;;;;5283689;28;20052;-67
2022/12/21 02:46:06;;;;;;;29.75;25.52;;;;;;;;;;5282591;28;20040;-67
2022/12/21 02:48:42;;;;;;;31.20;25.90;;;;;;;;;;5282986;28;20021;-67
2022/12/21 02:51:17;;;;;;;32.03;26.13;;;;;;;;;;5282488;28;20558;-67
2022/12/21 02:53:49;;;;;;;31.35;26.05;;;;;;;;;;5282611;28;20017;-67
2022/12/21 02:56:20;;;;;;;28.83;24.95;;;;;;;;;;5283011;28;20085;-67
2022/12/21 02:58:51;;;;;;;29.13;24.30;;;;;;;;;;5282375;28;20013;-67
2022/12/21 03:01:41;;;;;;;32.50;27.33;;;;;;;;;;5282684;28;20021;-68
2022/12/21 03:04:21;;;;;;;32.92;27.27;;;;;;;;;;5282825;28;20020;-68
2022/12/21 03:06:58;;;;;;;30.85;26.70;;;;;;;;;;5281865;28;20395;-68
2022/12/21 03:09:42;;;;;;;32.53;26.48;;;;;;;;;;5282358;28;20025;-68
2022/12/21 03:12:31;;;;;;;34.80;26.88;;;;;;;;;;5281829;28;20038;-68
2022/12/21 03:15:02;;;;;;;32.60;26.45;;;;;;;;;;5282128;28;20060;-68
2022/12/21 03:17:41;;;;;;;33.70;26.52;;;;;;;;;;5282342;28;20090;-68
2022/12/21 03:20:20;;;;;;;31.80;25.08;;;;;;;;;;5281951;28;20250;-68
2022/12/21 03:22:51;;;;;;;;;;;;;;;;;;5282691;28;20024;-68
2022/12/21 03:25:26;;;;;;;28.90;24.40;;;;;;;;;;5282211;28;19961;-68
2022/12/21 03:28:00;;;;;;;31.40;25.27;;;;;;;;;;5281372;28;20020;-68
2022/12/21 03:30:33;;;;;;;33.35;26.05;;;;;;;;;;5282298;28;20043;-68
2022/12/21 03:33:05;;;;;;;29.00;24.38;;;;;;;;;;5282106;28;20017;-67
2022/12/21 03:35:41;;;;;;;33.05;25.83;;;;;;;;;;5281301;28;20107;-68
2022/12/21 03:38:15;;;;;;;30.80;26.45;;;;;;;;;;5282665;28;20028;-68
2022/12/21 03:40:48;;;;;;;34.13;26.33;;;;;;;;;;5280625;28;20017;-68
2022/12/21 03:43:28;;;;;;;34.50;26.30;;;;;;;;;;5282174;28;20376;-68
2022/12/21 03:46:08;;;;;;;31.92;25.60;;;;;;;;;;5281822;28;20036;-68
2022/12/21 03:48:39;;;;;;;27.65;23.77;;;;;;;;;;5281063;28;20075;-69
2022/12/21 03:51:36;;;;;;;31.00;26.85;;;;;;;;;;5282301;28;20064;-68
2022/12/21 03:54:12;;;;;;;28.33;25.13;;;;;;;;;;5279625;28;20272;-68
2022/12/21 03:56:43;;;;;;;30.33;23.60;;;;;;;;;;5281217;28;20024;-68
2022/12/21 03:59:15;;;;;;;29.17;24.65;;;;;;;;;;5282049;28;20017;-69
2022/12/21 04:01:56;;;;;;;28.77;23.65;;;;;;;;;;5280794;28;20437;-68
2022/12/21 04:04:30;;;;;;;31.23;25.02;;;;;;;;;;5281685;28;20387;-67
2022/12/21 04:07:03;;;;;;;26.60;23.30;;;;;;;;;;5281976;28;20066;-67
2022/12/21 04:09:36;;;;;;;28.77;23.08;;;;;;;;;;5281018;28;20383;-67
2022/12/21 04:14:57;;;;;;;23.92;20.90;;;;;;;;;;5281971;28;20021;-68
2022/12/21 04:17:28;;;;;;;25.35;21.13;;;;;;;;;;5280985;28;20052;-68
2022/12/21 04:19:59;;;;;;;26.00;20.70;;;;;;;;;;5281679;28;20021;-69
2022/12/21 04:28:14;;;;;;;18.58;16.55;;;;;;;;;;5282242;28;20028;-67
2022/12/21 04:30:45;;;;;;;19.95;16.40;;;;;;;;;;5280397;28;20033;-68
2022/12/21 04:33:18;;;;;;;22.50;15.88;;;;;;;;;;5281789;28;20676;-68
2022/12/21 04:38:40;;;;;;;21.42;15.68;;;;;;;;;;5280747;28;20036;-67
2022/12/21 04:41:11;;;;;;;19.38;15.23;;;;;;;;;;5281287;28;20012;-68
2022/12/21 04:43:42;;;;;;;17.13;15.07;;;;;;;;;;5279815;28;20377;-68
2022/12/21 04:46:14;;;;;;;20.60;15.32;;;;;;;;;;5281408;28;20025;-66
2022/12/21 04:48:46;;;;;;;19.65;14.85;;;;;;;;;;5280898;28;20036;-67
2022/12/21 04:51:19;;;;;;;18.20;12.75;;;;;;;;;;5281017;28;20447;-68
2022/12/21 04:53:50;;;;;;;14.93;12.90;;;;;;;;;;5283717;28;20040;-67
2022/12/21 04:56:22;;;;;;;18.45;13.32;;;;;;;;;;5285266;28;20056;-69
2022/12/21 04:58:53;;;;;;;16.00;13.40;;;;;;;;;;5284450;28;20021;-68
2022/12/21 05:01:24;;;;;;;15.77;12.60;;;;;;;;;;5285490;28;20460;-68
2022/12/21 05:03:56;;;;;;;16.83;13.43;;;;;;;;;;5285160;28;20103;-69
2022/12/21 05:06:27;;;;;;;16.80;13.73;;;;;;;;;;5284541;28;20058;-68
2022/12/21 05:08:58;;;;;;;14.28;12.16;;;;;;;;;;5285071;28;20028;-68
2022/12/21 05:11:29;;;;;;;16.73;13.30;;;;;;;;;;5284940;28;20099;-68
2022/12/21 05:14:01;;;;;;;18.00;13.32;;;;;;;;;;5284257;28;20028;-68
2022/12/21 05:16:32;;;;;;;17.25;12.63;;;;;;;;;;5284922;28;20094;-68
2022/12/21 05:19:03;;;;;;;16.55;13.27;;;;;;;;;;5284014;28;20052;-68
2022/12/21 05:21:34;;;;;;;19.05;13.77;;;;;;;;;;5284703;28;20028;-69
2022/12/21 05:24:06;;;;;;;14.48;11.55;;;;;;;;;;5284962;28;20024;-68
2022/12/21 05:26:37;;;;;;;13.88;12.48;;;;;;;;;;5284081;28;20139;-68
2022/12/21 05:29:09;;;;;;;14.13;11.18;;;;;;;;;;5284648;28;20052;-68
2022/12/21 05:31:40;;;;;;;14.20;11.60;;;;;;;;;;5284278;28;20029;-68
2022/12/21 05:34:11;;;;;;;16.36;11.76;;;;;;;;;;5283940;28;20032;-68
2022/12/21 05:36:43;;;;;;;14.96;10.48;;;;;;;;;;5284320;28;20093;-68
2022/12/21 05:39:14;;;;;;;12.15;10.68;;;;;;;;;;5284642;28;20017;-68
2022/12/21 05:41:45;;;;;;;16.30;11.50;;;;;;;;;;5283564;28;20572;-68
2022/12/21 05:44:16;;;;;;;16.30;11.43;;;;;;;;;;5284553;28;20551;-68
2022/12/21 05:46:47;;;;;;;14.93;11.38;;;;;;;;;;5283839;28;20036;-68
2022/12/21 05:49:19;;;;;;;16.20;11.12;;;;;;;;;;5284022;28;20035;-68
2022/12/21 05:51:50;;;;;;;16.92;10.63;;;;;;;;;;5283947;28;20017;-68
2022/12/21 05:54:21;;;;;;;14.66;10.70;;;;;;;;;;5283342;28;20054;-68
2022/12/21 05:56:52;;;;;;;13.90;10.70;;;;;;;;;;5283855;28;20035;-68
2022/12/21 05:59:23;;;;;;;12.80;9.90;;;;;;;;;;5283871;28;20474;-68
2022/12/21 06:01:54;;;;;;;12.98;9.40;;;;;;;;;;5283438;28;20031;-68
2022/12/21 06:04:26;;;;;;;12.27;9.55;;;;;;;;;;5284015;28;20017;-68
2022/12/21 06:06:57;;;;;;;12.05;8.70;;;;;;;;;;5283979;28;20043;-68
2022/12/21 06:09:28;;;;;;;13.27;8.52;;;;;;;;;;5283085;28;20009;-68
2022/12/21 06:11:59;;;;;;;14.25;8.48;;;;;;;;;;5283920;28;20085;-68
2022/12/21 06:14:30;;;;;;;11.45;8.02;;;;;;;;;;5283724;28;20021;-67
2022/12/21 06:17:01;;;;;;;11.95;7.95;;;;;;;;;;5282768;28;20115;-68
2022/12/21 06:19:33;;;;;;;9.57;6.93;;;;;;;;;;5283791;28;20380;-67
2022/12/21 06:22:04;;;;;;;10.82;7.25;;;;;;;;;;5282844;28;20070;-69
2022/12/21 06:24:35;;;;;;;8.40;6.16;;;;;;;;;;5283770;28;20051;-68
2022/12/21 06:27:06;;;;;;;10.32;6.45;;;;;;;;;;5283549;28;20017;-68
2022/12/21 06:29:38;;;;;;;10.93;6.53;;;;;;;;;;5282532;28;20444;-68
2022/12/21 06:32:10;;;;;;;10.20;5.65;;;;;;;;;;5283253;28;20081;-68
2022/12/21 06:34:41;;;;;;;8.00;5.25;;;;;;;;;;5282747;28;20045;-68
2022/12/21 06:37:12;;;;;;;8.55;5.50;;;;;;;;;;5282860;28;20059;-68
2022/12/21 06:39:43;;;;;;;12.02;5.25;;;;;;;;;;5282995;28;20016;-68
2022/12/21 06:42:15;;;;;;;7.64;4.70;;;;;;;;;;5283378;28;20024;-68
2022/12/21 06:44:46;;;;;;;6.66;4.30;;;;;;;;;;5281762;28;20127;-68
2022/12/21 06:47:17;;;;;;;6.78;4.07;;;;;;;;;;5283716;28;20025;-68
2022/12/21 06:49:49;;;;;;;10.07;5.00;;;;;;;;;;5282807;28;20024;-68
2022/12/21 06:52:20;;;;;;;8.80;4.35;;;;;;;;;;5282440;28;20020;-68
2022/12/21 06:54:51;;;;;;;10.73;3.75;;;;;;;;;;5283044;28;20009;-69
2022/12/21 06:57:22;;;;;;;8.05;3.72;;;;;;;;;;5281874;28;20032;-69
2022/12/21 06:59:54;;;;;;;9.23;4.05;;;;;;;;;;5282713;28;20024;-68
2022/12/21 07:02:25;;;;;;;7.68;4.28;;;;;;;;;;5282772;28;20020;-67
2022/12/21 07:04:57;;;;;;;7.07;3.13;;;;;;;;;;5281977;28;20032;-70
2022/12/21 07:07:28;;;;;;;7.95;3.78;;;;;;;;;;5282513;28;20017;-67
2022/12/21 07:09:59;;;;;;;6.35;3.22;;;;;;;;;;5282330;28;20029;-68
2022/12/21 07:12:30;;;;;;;11.38;3.55;;;;;;;;;;5281952;28;20040;-68
2022/12/21 07:15:02;;;;;;;6.07;2.83;;;;;;;;;;5282290;28;20035;-68
2022/12/21 07:17:33;;;;;;;6.25;3.05;;;;;;;;;;5282169;28;20060;-68
2022/12/21 07:20:05;;;;;;;8.25;3.88;;;;;;;;;;5281273;28;20020;-68
2022/12/21 07:22:39;;;;;;;8.25;3.55;;;;;;;;;;5282109;28;20051;-69
2022/12/21 07:25:11;;;;;;;7.38;2.83;;;;;;;;;;5282479;28;20073;-68
2022/12/21 07:27:42;;;;;;;6.75;2.75;;;;;;;;;;5281160;28;20520;-68
2022/12/21 07:30:13;;;;;;;8.05;3.78;;;;;;;;;;5282127;28;20392;-69
2022/12/21 07:32:45;;;;;;;6.70;2.83;;;;;;;;;;5280830;28;20078;-67
2022/12/21 07:35:17;;;;;;;7.55;3.05;;;;;;;;;;5282255;28;20043;-67
2022/12/21 07:37:48;;;;;;;6.03;2.72;;;;;;;;;;5281564;28;20025;-67
2022/12/21 07:40:19;;;;;;;8.98;3.35;;;;;;;;;;5281463;28;20043;-67
2022/12/21 07:42:50;;;;;;;6.15;2.17;;;;;;;;;;5281448;28;20025;-67
2022/12/21 07:45:22;;;;;;;6.22;3.00;;;;;;;;;;5281525;28;20056;-67
2022/12/21 07:47:54;;;;;;;8.25;3.20;;;;;;;;;;5280989;28;20023;-68
2022/12/21 07:50:26;;;;;;;6.75;2.70;;;;;;;;;;5281512;28;20017;-68
2022/12/21 07:52:58;;;;;;;7.75;2.90;;;;;;;;;;5281545;28;20368;-68
2022/12/21 07:55:29;;;;;;;7.97;3.20;;;;;;;;;;5280896;28;20145;-68
2022/12/21 07:58:00;;;;;;;7.40;2.80;;;;;;;;;;5281478;28;20475;-68
2022/12/21 08:00:32;;;;;;;5.43;3.08;;;;;;;;;;5280882;28;20024;-68
2022/12/21 08:03:03;;;;;;;6.65;2.95;;;;;;;;;;5281919;28;20541;-67
2022/12/21 08:05:35;;;;;;;6.07;3.03;;;;;;;;;;5281673;28;20020;-68
2022/12/21 08:08:06;;;;;;;8.77;3.92;;;;;;;;;;5280705;28;20020;-67
2022/12/21 08:10:37;;;;;;;11.60;4.03;;;;;;;;;;5281422;28;20031;-68
2022/12/21 08:13:08;;;;;;;12.77;3.80;;;;;;;;;;5281614;28;20024;-68
2022/12/21 08:15:40;;;;;;;7.60;4.15;;;;;;;;;;5280437;28;20527;-69
2022/12/21 08:18:11;;;;;;;10.93;4.03;;;;;;;;;;5281972;28;20396;-70
2022/12/21 08:20:43;;;;;;;7.68;4.38;;;;;;;;;;5281100;28;20051;-71
2022/12/21 08:23:15;;;;;;;9.88;4.55;;;;;;;;;;5281025;28;20017;-69
2022/12/21 08:25:46;;;;;;;9.73;4.75;;;;;;;;;;5281269;28;20025;-69
2022/12/21 08:28:17;;;;;;;10.88;5.30;;;;;;;;;;5283345;28;20025;-71
2022/12/21 08:30:48;;;;;;;7.85;4.70;;;;;;;;;;5284585;28;20428;-69
2022/12/21 08:33:19;;;;;;;10.30;4.90;;;;;;;;;;5285849;28;20021;-70
2022/12/21 08:35:50;;;;;;;10.75;5.60;;;;;;;;;;5284815;28;20035;-70
2022/12/21 08:38:22;;;;;;;13.27;5.13;;;;;;;;;;5285617;28;20043;-71
2022/12/21 08:40:53;;;;;;;8.95;5.65;;;;;;;;;;5285593;28;20048;-68
2022/12/21 08:43:24;;;;;;;11.80;6.57;;;;;;;;;;5284323;28;20059;-70
2022/12/21 08:45:56;;;;;;;13.32;6.28;;;;;;;;;;5285567;28;20020;-69
2022/12/21 08:48:27;;;;;;;11.82;6.80;;;;;;;;;;5285798;28;20081;-69
2022/12/21 08:50:59;;;;;;;14.68;5.80;;;;;;;;;;5284553;28;20154;-69
2022/12/21 08:53:30;;;;;;;15.02;6.40;;;;;;;;;;5285127;28;20457;-69
2022/12/21 08:56:02;;;;;;;11.63;6.40;;;;;;;;;;5285055;28;20533;-70
2022/12/21 08:58:34;;;;;;;14.63;8.48;;;;;;;;;;5284580;28;20048;-70
2022/12/21 09:01:05;;;;;;;15.68;8.88;;;;;;;;;;5284973;28;20110;-69
2022/12/21 09:03:36;;;;;;;13.63;8.23;;;;;;;;;;5285058;28;20048;-68
2022/12/21 09:06:07;;;;;;;15.35;9.68;;;;;;;;;;5284313;28;20020;-69
2022/12/21 09:08:39;;;;;;;17.60;10.73;;;;;;;;;;5284586;28;20024;-69
2022/12/21 09:11:11;;;;;;;14.85;9.70;;;;;;;;;;5284354;28;20456;-69
2022/12/21 09:13:42;;;;;;;16.17;10.63;;;;;;;;;;5295440;28;20028;-69
2022/12/21 09:16:15;;;;;;;15.90;10.48;;;;;;;;;;5288296;28;20472;-69
2022/12/21 09:18:47;;;;;;;17.40;11.32;;;;;;;;;;5284401;28;20375;-69
2022/12/21 09:21:20;;;;;;;20.90;11.07;;;;;;;;;;5304880;28;20072;-70
2022/12/21 09:23:51;;;;;;;18.45;9.90;;;;;;;;;;5304843;28;20020;-69
2022/12/21 09:26:23;;;;;;;17.27;10.35;;;;;;;;;;5303707;28;20020;-70
2022/12/21 09:28:54;;;;;;;20.83;11.23;;;;;;;;;;5304857;28;20024;-67
2022/12/21 09:31:25;;;;;;;20.25;11.20;;;;;;;;;;5305045;28;20024;-68
2022/12/21 09:33:57;;;;;;;14.27;9.30;;;;;;;;;;5304643;28;20016;-70
2022/12/21 09:36:28;;;;;;;18.85;10.43;;;;;;;;;;5305426;28;20024;-69
2022/12/21 09:38:59;;;;;;;14.68;10.00;;;;;;;;;;5304083;28;20012;-69
2022/12/21 09:41:34;;;;;;;16.73;9.88;;;;;;;;;;5305496;28;20024;-69
2022/12/21 09:44:14;;;;;;;18.70;10.35;;;;;;;;;;5304561;28;20368;-69
2022/12/21 09:46:48;;;;;;;15.68;10.45;;;;;;;;;;5304291;28;20016;-69
2022/12/21 09:49:21;;;;;;;18.80;10.05;;;;;;;;;;5305706;28;20096;-69
2022/12/21 09:51:55;;;;;;;21.08;9.70;;;;;;;;;;5305259;28;20022;-69
2022/12/21 09:54:37;;;;;;;18.58;9.57;;;;;;;;;;5303620;28;20016;-69
2022/12/21 09:57:12;;;;;;;18.27;9.85;;;;;;;;;;5302538;28;20024;-70
2022/12/21 09:59:43;;;;;;;15.70;8.57;;;;;;;;;;5304689;28;20447;-69
2022/12/21 10:02:44;;;;;;;15.48;9.95;;;;;;;;;;5304707;28;20024;-70
2022/12/21 10:05:21;;;;;;;18.90;9.10;;;;;;;;;;5291131;28;20031;-69
2022/12/21 10:07:55;;;;;;;15.95;9.00;;;;;;;;;;5304307;28;20020;-69
2022/12/21 10:10:39;;;;;;;17.25;8.07;;;;;;;;;;5304975;28;20012;-69
2022/12/21 10:13:23;;;;;;;15.88;9.13;;;;;;;;;;5304986;28;20383;-69
2022/12/21 10:15:54;;;;;;;17.17;8.55;;;;;;;;;;5304238;28;20016;-69
2022/12/21 10:18:48;;;;;;;16.60;9.65;;;;;;;;;;5304568;28;20039;-70
2022/12/21 10:21:19;;;;;;;15.63;9.23;;;;;;;;;;5295629;28;20036;-70
2022/12/21 10:23:52;;;;;;;17.70;9.02;;;;;;;;;;5304163;28;20084;-70
2022/12/21 10:26:27;;;;;;;16.55;8.38;;;;;;;;;;5304617;28;20103;-70
2022/12/21 10:29:01;;;;;;;16.40;8.77;;;;;;;;;;5303787;28;20609;-70
2022/12/21 10:31:35;;;;;;;12.75;7.43;;;;;;;;;;5304441;28;20103;-71
2022/12/21 10:34:17;;;;;;;20.50;8.57;;;;;;;;;;5304497;28;20024;-70
2022/12/21 10:36:53;;;;;;;17.52;7.70;;;;;;;;;;5303032;28;20483;-69
2022/12/21 10:39:24;;;;;;;13.85;7.47;;;;;;;;;;5304608;28;20357;-69
2022/12/21 10:42:02;;;;;;;14.63;8.20;;;;;;;;;;5304341;28;20030;-68
2022/12/21 10:44:38;;;;;;;15.45;7.65;;;;;;;;;;5303136;28;20522;-69
2022/12/21 10:47:14;;;;;;;13.95;7.18;;;;;;;;;;5304784;28;20020;-69
2022/12/21 10:50:06;;;;;;;17.67;7.25;;;;;;;;;;5302797;28;20012;-68
2022/12/21 10:52:42;;;;;;;14.70;7.30;;;;;;;;;;5293567;28;20098;-69
2022/12/21 10:55:19;;;;;;;14.95;7.25;;;;;;;;;;5304472;28;20024;-68
2022/12/21 10:58:02;;;;;;;14.15;6.85;;;;;;;;;;5302859;28;20111;-68
2022/12/21 11:00:38;;;;;;;15.88;7.70;;;;;;;;;;5303997;28;20379;-68
2022/12/21 11:03:29;;;;;;;14.32;6.93;;;;;;;;;;5303868;28;20051;-68
2022/12/21 11:06:10;;;;;;;14.32;8.77;;;;;;;;;;5303758;28;20028;-68
2022/12/21 11:08:49;;;;;;;15.55;7.47;;;;;;;;;;5303718;28;20020;-68
2022/12/21 11:11:26;;;;;;;14.50;7.18;;;;;;;;;;5303005;28;20047;-68
2022/12/21 11:14:15;;;;;;;15.70;8.00;;;;;;;;;;5303567;28;20028;-68
2022/12/21 11:16:46;;;;;;;13.05;7.55;;;;;;;;;;5303362;28;20016;-68
2022/12/21 11:19:18;;;;;;;12.52;7.60;;;;;;;;;;5303102;28;20030;-68
2022/12/21 11:21:54;;;;;;;14.73;8.60;;;;;;;;;;5302954;28;20024;-68
2022/12/21 11:24:37;;;;;;;16.90;8.10;;;;;;;;;;5303721;28;20352;-68
2022/12/21 11:27:08;;;;;;;17.80;9.15;;;;;;;;;;5303450;28;20493;-69
2022/12/21 11:29:53;;;;;;;11.40;7.97;;;;;;;;;;5303110;28;20023;-68
2022/12/21 11:32:24;;;;;;;15.02;8.27;;;;;;;;;;5302502;28;20273;-68
2022/12/21 11:35:02;;;;;;;15.63;8.07;;;;;;;;;;5303142;28;20012;-69
2022/12/21 11:37:37;;;;;;;15.50;7.72;;;;;;;;;;5302747;28;20039;-68
2022/12/21 11:40:11;;;;;;;18.50;7.85;;;;;;;;;;5302621;28;20030;-68
2022/12/21 11:42:54;;;;;;;14.75;8.35;;;;;;;;;;5302825;28;20332;-69
2022/12/21 11:45:44;;;;;;;13.02;8.00;;;;;;;;;;5302837;28;20373;-69
2022/12/21 11:48:15;;;;;;;14.88;8.60;;;;;;;;;;5303306;28;20028;-69
2022/12/21 11:50:53;;;;;;;14.18;8.30;;;;;;;;;;5302647;28;20035;-69
2022/12/21 11:53:35;;;;;;;17.80;8.80;;;;;;;;;;5301935;28;20377;-70
2022/12/21 11:56:09;;;;;;;15.07;7.78;;;;;;;;;;5302795;28;20517;-69
2022/12/21 11:58:49;;;;;;;15.55;8.45;;;;;;;;;;5302524;28;20028;-69
2022/12/21 12:01:29;;;;;;;20.77;9.70;;;;;;;;;;5301778;28;20096;-70
2022/12/21 12:04:10;;;;;;;17.45;8.95;;;;;;;;;;5302514;28;20016;-69
2022/12/21 12:07:09;;;;;;;15.98;8.95;;;;;;;;;;5301832;28;20091;-69
2022/12/21 12:09:46;;;;;;;16.95;8.30;;;;;;;;;;5302510;28;20477;-69
2022/12/21 12:12:22;;;;;;;16.10;9.13;;;;;;;;;;5303131;28;20027;-69
2022/12/21 12:15:12;;;;;;;19.48;7.90;;;;;;;;;;5301909;28;20087;-68
2022/12/21 12:17:49;;;;;;;13.75;7.45;;;;;;;;;;5302110;28;20031;-69
2022/12/21 12:20:44;;;;;;;16.48;7.43;;;;;;;;;;5302618;28;20375;-69
2022/12/21 12:23:34;;;;;;;14.93;7.03;;;;;;;;;;5302575;28;20107;-69
2022/12/21 12:26:13;;;;;;;13.93;6.38;;;;;;;;;;5302002;28;20127;-69
2022/12/21 12:29:07;;;;;;;14.02;6.57;;;;;;;;;;5301270;28;20031;-71
2022/12/21 12:31:54;;;;;;;14.57;6.30;;;;;;;;;;5302392;28;20019;-69
2022/12/21 12:34:43;;;;;;;15.65;6.10;;;;;;;;;;5302439;28;20020;-69
2022/12/21 12:37:21;;;;;;;15.60;6.60;;;;;;;;;;5301961;28;20032;-69
2022/12/21 12:40:02;;;;;;;14.18;6.70;;;;;;;;;;5301941;28;20040;-69
2022/12/21 12:42:54;;;;;;;11.23;6.05;;;;;;;;;;5301435;28;20067;-69
2022/12/21 12:45:28;;;;;;;12.63;6.60;;;;;;;;;;5301768;28;20055;-69
2022/12/21 12:48:07;;;;;;;13.10;6.32;;;;;;;;;;5301985;28;20143;-69
2022/12/21 12:50:48;;;;;;;13.52;6.15;;;;;;;;;;5301123;28;20016;-69
2022/12/21 12:53:19;;;;;;;16.33;6.50;;;;;;;;;;5302331;28;20023;-69
2022/12/21 12:56:03;;;;;;;9.92;4.98;;;;;;;;;;5301616;28;20013;-69
2022/12/21 12:58:43;;;;;;;14.20;6.32;;;;;;;;;;5301720;28;20043;-69
2022/12/21 13:01:18;;;;;;;13.35;5.90;;;;;;;;;;5302231;28;20047;-69
2022/12/21 13:04:18;;;;;;;6.63;4.93;;;;;;;;;;5300741;28;20016;-69
2022/12/21 13:06:58;;;;;;;12.80;6.15;;;;;;;;;;5288005;28;20032;-69
2022/12/21 13:09:49;;;;;;;11.88;5.50;;;;;;;;;;5302005;28;20059;-69
2022/12/21 13:12:27;;;;;;;8.02;5.40;;;;;;;;;;5301113;28;20463;-69
2022/12/21 13:15:07;;;;;;;9.43;5.20;;;;;;;;;;5304500;28;20494;-69
2022/12/21 13:18:01;;;;;;;13.40;4.85;;;;;;;;;;5299445;28;20036;-68
2022/12/21 13:20:33;;;;;;;12.13;5.78;;;;;;;;;;5299778;28;20077;-68
2022/12/21 13:23:16;;;;;;;10.35;4.00;;;;;;;;;;5295522;28;20034;-69
2022/12/21 13:25:59;;;;;;;6.18;3.30;;;;;;;;;;5283337;28;20439;-68
2022/12/21 13:28:33;;;;;;;7.35;3.00;;;;;;;;;;5284615;28;20015;-67
2022/12/21 13:31:07;;;;;;;9.48;3.50;;;;;;;;;;5283517;28;20069;-68
2022/12/21 13:33:44;;;;;;;6.78;3.22;;;;;;;;;;5284138;28;20020;-69
2022/12/21 13:36:17;;;;;;;8.27;3.53;;;;;;;;;;5284394;28;20029;-70
2022/12/21 13:38:56;;;;;;;5.47;2.80;;;;;;;;;;5282928;28;20028;-69
2022/12/21 13:41:36;;;;;;;7.85;3.65;;;;;;;;;;5283914;28;20027;-68
2022/12/21 13:44:18;;;;;;;9.75;4.95;;;;;;;;;;5283784;28;20044;-68
2022/12/21 13:46:50;;;;;;;10.85;6.15;;;;;;;;;;5294052;28;20029;-70
2022/12/21 13:49:22;;;;;;;9.57;5.38;;;;;;;;;;5305026;28;20416;-69
2022/12/21 13:51:57;;;;;;;13.50;5.43;;;;;;;;;;5305088;28;20028;-69
2022/12/21 13:54:28;;;;;;;9.40;5.03;;;;;;;;;;5304354;28;20270;-69
2022/12/21 13:57:12;;;;;;;11.32;5.10;;;;;;;;;;5304958;28;20043;-69
2022/12/21 13:59:49;;;;;;;9.10;4.85;;;;;;;;;;5303962;28;20016;-69
2022/12/21 14:02:26;;;;;;;7.00;4.05;;;;;;;;;;5304945;28;20040;-69
2022/12/21 14:04:59;;;;;;;7.60;3.70;;;;;;;;;;5282980;28;20020;-68
2022/12/21 14:07:39;;;;;;;5.85;3.53;;;;;;;;;;5282736;28;20020;-68
2022/12/21 14:10:20;;;;;;;9.77;3.83;;;;;;;;;;5284133;28;20025;-68
2022/12/21 14:12:53;;;;;;;4.68;3.10;;;;;;;;;;5283335;28;20039;-69
2022/12/21 14:15:43;;;;;;;4.55;2.70;;;;;;;;;;5282309;28;20025;-69
2022/12/21 14:18:16;;;;;;;8.07;3.65;;;;;;;;;;5283600;28;20040;-70
2022/12/21 14:20:50;;;;;;;5.68;3.03;;;;;;;;;;5282632;28;20428;-69
2022/12/21 14:23:32;;;;;;;7.18;4.00;;;;;;;;;;5283234;28;20078;-70
2022/12/21 14:26:03;;;;;;;5.80;2.42;;;;;;;;;;5281974;28;20033;-69
2022/12/21 14:28:45;;;;;;;8.38;3.10;;;;;;;;;;5282161;28;20456;-68
2022/12/21 14:31:19;;;;;;;5.28;2.13;;;;;;;;;;5283429;28;20020;-68
2022/12/21 14:33:52;;;;;;;4.68;2.15;;;;;;;;;;5282881;28;20023;-68
2022/12/21 14:36:26;;;;;;;6.57;2.38;;;;;;;;;;5282717;28;20096;-68
2022/12/21 14:39:00;;;;;;;6.05;2.70;;;;;;;;;;5283280;28;20031;-69
2022/12/21 14:41:32;;;;;;;5.55;2.05;;;;;;;;;;5282643;28;20537;-70
2022/12/21 14:44:09;;;;;;;6.50;2.38;;;;;;;;;;5282795;28;20040;-69
2022/12/21 14:47:00;;;;;;;5.38;2.05;;;;;;;;;;5282978;28;20078;-68
2022/12/21 14:49:36;;;;;;;8.95;2.95;;;;;;;;;;5281512;28;20090;-68
2022/12/21 14:52:16;;;;;;;4.15;2.35;;;;;;;;;;5282865;28;20044;-68
2022/12/21 14:55:10;;;;;;;6.25;2.40;;;;;;;;;;5282420;28;20017;-68
2022/12/21 14:57:45;;;;;;;6.75;2.88;;;;;;;;;;5281571;28;20068;-69
2022/12/21 15:00:23;;;;;;;7.05;2.50;;;;;;;;;;5282946;28;20033;-68
2022/12/21 15:02:55;;;;;;;6.95;2.92;;;;;;;;;;5281621;28;20064;-68
2022/12/21 15:05:29;;;;;;;8.00;3.67;;;;;;;;;;5282473;28;20354;-69
2022/12/21 15:08:13;;;;;;;7.50;2.88;;;;;;;;;;5282312;28;20290;-68
2022/12/21 15:10:44;;;;;;;6.47;2.63;;;;;;;;;;5281105;28;20028;-68
2022/12/21 15:13:35;;;;;;;5.45;2.78;;;;;;;;;;5282424;28;20020;-68
2022/12/21 15:16:13;;;;;;;6.30;2.90;;;;;;;;;;5281640;28;20278;-68
2022/12/21 15:18:58;;;;;;;6.82;2.67;;;;;;;;;;5281109;28;20044;-68
2022/12/21 15:21:31;;;;;;;7.75;3.28;;;;;;;;;;5282128;28;20021;-69
2022/12/21 15:24:05;;;;;;;8.52;3.05;;;;;;;;;;5281603;28;20013;-68
2022/12/21 15:26:39;;;;;;;6.97;2.95;;;;;;;;;;5282251;28;20021;-68
2022/12/21 15:29:15;;;;;;;5.25;3.17;;;;;;;;;;5282486;28;20028;-68